createdAt,value
2022-07-30T00:02:04.312Z,95177.94
2022-07-30T00:04:44.464Z,95183.19
2022-07-30T00:07:31.502Z,95183.25
2022-07-30T00:10:14.178Z,95184.91
2022-07-30T00:13:07.469Z,95186.66
2022-07-30T00:15:54.493Z,95186.72
2022-07-30T00:18:27.572Z,95184.22
2022-07-30T00:21:32.621Z,95173.88
2022-07-30T00:24:10.711Z,95161.81
2022-07-30T00:26:58.819Z,95161.81
2022-07-30T00:29:34.902Z,95158.34
2022-07-30T00:32:26.184Z,95155.81
2022-07-30T00:35:06.490Z,95166.22
2022-07-30T00:37:55.514Z,95161.00
2022-07-30T00:40:38.977Z,95153.22
2022-07-30T00:43:25.509Z,95149.81
2022-07-30T00:45:58.571Z,95139.44
2022-07-30T00:48:45.538Z,95124.81
2022-07-30T00:51:25.513Z,95118.81
2022-07-30T00:54:12.527Z,95111.09
2022-07-30T00:56:45.596Z,95103.31
2022-07-30T00:59:34.496Z,95089.56
2022-07-30T01:02:07.626Z,95088.72
2022-07-30T01:04:54.487Z,95085.31
2022-07-30T01:07:34.537Z,95077.53
2022-07-30T01:10:22.498Z,95071.66
2022-07-30T01:13:02.534Z,95066.47
2022-07-30T01:15:50.489Z,95057.03
2022-07-30T01:18:31.508Z,95054.47
2022-07-30T01:21:22.541Z,95047.69
2022-07-30T01:23:59.591Z,95046.75
2022-07-30T01:26:53.563Z,95051.94
2022-07-30T01:29:46.540Z,95053.69
2022-07-30T01:32:20.621Z,95042.56
2022-07-30T01:35:08.533Z,95035.63
2022-07-30T01:37:50.540Z,95033.03
2022-07-30T01:40:45.554Z,95021.84
2022-07-30T01:43:33.511Z,95019.28
2022-07-30T01:46:16.598Z,95018.34
2022-07-30T01:49:05.581Z,95020.94
2022-07-30T01:51:50.540Z,95007.94
2022-07-30T01:54:39.591Z,95009.69
2022-07-30T01:57:20.538Z,95010.56
2022-07-30T02:00:14.969Z,95014.88
2022-07-30T02:02:55.554Z,95009.75
2022-07-30T02:05:53.574Z,95008.84
2022-07-30T02:08:57.555Z,95008.00
2022-07-30T02:12:09.578Z,95014.88
2022-07-30T02:14:52.658Z,95008.00
2022-07-30T02:17:46.545Z,95001.97
2022-07-30T02:20:32.535Z,95001.97
2022-07-30T02:23:26.533Z,94991.69
2022-07-30T02:26:00.807Z,94988.28
2022-07-30T02:28:50.559Z,94983.09
2022-07-30T02:31:27.712Z,94984.03
2022-07-30T02:34:15.605Z,94981.56
2022-07-30T02:37:00.817Z,94967.78
2022-07-30T02:39:58.538Z,94963.59
2022-07-30T02:42:53.568Z,94972.34
2022-07-30T02:45:43.558Z,94969.81
2022-07-30T02:48:34.305Z,94968.09
2022-07-30T02:51:32.563Z,94975.88
2022-07-30T02:54:21.615Z,94969.00
2022-07-30T02:56:57.810Z,94958.66
2022-07-30T02:59:47.586Z,94954.47
2022-07-30T03:02:26.510Z,94950.19
2022-07-30T03:05:17.555Z,94948.50
2022-07-30T03:07:52.663Z,94944.25
2022-07-30T03:10:40.573Z,94945.16
2022-07-30T03:13:16.671Z,94946.09
2022-07-30T03:16:05.607Z,94946.09
2022-07-30T03:18:41.643Z,94935.78
2022-07-30T03:21:33.566Z,94935.72
2022-07-30T03:24:08.669Z,94933.97
2022-07-30T03:26:58.970Z,94935.63
2022-07-30T03:29:33.955Z,94930.47
2022-07-30T03:32:26.018Z,94934.75
2022-07-30T03:35:05.671Z,94929.56
2022-07-30T03:37:55.583Z,94927.81
2022-07-30T03:40:36.587Z,94929.56
2022-07-30T03:43:33.264Z,94941.59
2022-07-30T03:46:20.690Z,94941.53
2022-07-30T03:48:53.697Z,94947.53
2022-07-30T03:51:41.656Z,94952.63
2022-07-30T03:54:24.608Z,94948.28
2022-07-30T03:57:20.278Z,94956.00
2022-07-30T04:00:07.596Z,94950.81
2022-07-30T04:02:50.652Z,94956.00
2022-07-30T04:05:41.317Z,94957.66
2022-07-30T04:08:14.649Z,94966.25
2022-07-30T04:11:05.647Z,94953.41
2022-07-30T04:13:38.694Z,94954.25
2022-07-30T04:16:41.633Z,94956.00
2022-07-30T04:19:28.671Z,94961.22
2022-07-30T04:22:10.598Z,94961.22
2022-07-30T04:24:58.580Z,94962.16
2022-07-30T04:28:03.003Z,94968.22
2022-07-30T04:30:50.629Z,94967.47
2022-07-30T04:33:30.594Z,94959.84
2022-07-30T04:36:24.602Z,94973.63
2022-07-30T04:39:11.637Z,94965.78
2022-07-30T04:41:49.145Z,94959.69
2022-07-30T04:44:36.605Z,94950.28
2022-07-30T04:47:09.710Z,94958.81
2022-07-30T04:50:01.952Z,94952.69
2022-07-30T04:52:38.683Z,94958.66
2022-07-30T04:55:27.644Z,94955.16
2022-07-30T04:58:02.019Z,94950.81
2022-07-30T05:00:48.625Z,94956.81
2022-07-30T05:03:29.639Z,94951.66
2022-07-30T05:06:27.753Z,94952.47
2022-07-30T05:09:14.616Z,94958.44
2022-07-30T05:11:47.691Z,94961.00
2022-07-30T05:14:34.638Z,94961.00
2022-07-30T05:17:07.759Z,94962.63
2022-07-30T05:19:54.595Z,94968.72
2022-07-30T05:22:30.131Z,94975.50
2022-07-30T05:25:16.613Z,94971.09
2022-07-30T05:28:10.628Z,94978.69
2022-07-30T05:30:57.710Z,94987.22
2022-07-30T05:33:40.828Z,94986.25
2022-07-30T05:36:28.643Z,94999.94
2022-07-30T05:39:01.713Z,95004.22
2022-07-30T05:41:48.649Z,95006.72
2022-07-30T05:44:28.629Z,95000.56
2022-07-30T05:47:22.803Z,95006.59
2022-07-30T05:50:09.642Z,95009.09
2022-07-30T05:52:42.757Z,95005.63
2022-07-30T05:55:29.647Z,95010.78
2022-07-30T05:58:08.755Z,95009.94
2022-07-30T06:00:55.635Z,95009.09
2022-07-30T06:03:28.738Z,95009.03
2022-07-30T06:06:19.678Z,95017.56
2022-07-30T06:09:02.663Z,95018.34
2022-07-30T06:11:49.645Z,95016.56
2022-07-30T06:14:29.660Z,95017.34
2022-07-30T06:17:23.658Z,95011.19
2022-07-30T06:20:17.663Z,95005.94
2022-07-30T06:23:04.653Z,95005.84
2022-07-30T06:25:39.859Z,95010.97
2022-07-30T06:28:42.068Z,95005.72
2022-07-30T06:31:22.784Z,95008.16
2022-07-30T06:34:16.666Z,95009.84
2022-07-30T06:37:03.991Z,95002.81
2022-07-30T06:39:56.753Z,95003.53
2022-07-30T06:42:44.649Z,95006.91
2022-07-30T06:45:17.762Z,94999.81
2022-07-30T06:48:05.662Z,95001.44
2022-07-30T06:50:45.660Z,94995.16
2022-07-30T06:53:42.266Z,94987.31
2022-07-30T06:56:29.667Z,94988.91
2022-07-30T06:59:02.770Z,94988.78
2022-07-30T07:01:49.755Z,94987.69
2022-07-30T07:04:29.720Z,94979.78
2022-07-30T07:07:40.907Z,94981.38
2022-07-30T07:10:28.652Z,94977.72
2022-07-30T07:13:08.687Z,94977.63
2022-07-30T07:16:02.678Z,94973.09
2022-07-30T07:18:56.692Z,94972.75
2022-07-30T07:21:43.693Z,94967.31
2022-07-30T07:24:16.826Z,94969.53
2022-07-30T07:27:03.802Z,94963.78
2022-07-30T07:29:37.777Z,94962.16
2022-07-30T07:32:24.724Z,94961.75
2022-07-30T07:34:57.780Z,94965.38
2022-07-30T07:37:44.718Z,94970.19
2022-07-30T07:40:25.696Z,94971.44
2022-07-30T07:43:12.700Z,94960.72
2022-07-30T07:45:45.897Z,94954.38
2022-07-30T07:48:32.698Z,94953.00
2022-07-30T07:51:13.715Z,94954.38
2022-07-30T07:54:20.892Z,94955.69
2022-07-30T07:57:07.719Z,94951.06
2022-07-30T07:59:43.808Z,94950.75
2022-07-30T08:02:30.750Z,94948.78
2022-07-30T08:05:04.177Z,94946.53
2022-07-30T08:07:51.719Z,94944.28
2022-07-30T08:10:31.733Z,94946.34
2022-07-30T08:13:51.663Z,94943.47
2022-07-30T08:16:32.814Z,94941.72
2022-07-30T08:19:05.800Z,94941.56
2022-07-30T08:21:52.705Z,94956.13
2022-07-30T08:24:26.182Z,94949.91
2022-07-30T08:27:12.712Z,94950.81
2022-07-30T08:29:45.818Z,94938.69
2022-07-30T08:32:32.742Z,94939.59
2022-07-30T08:35:12.737Z,94937.00
2022-07-30T08:38:06.734Z,94935.50
2022-07-30T08:40:53.725Z,94925.47
2022-07-30T08:43:27.809Z,94920.56
2022-07-30T08:46:18.725Z,94919.97
2022-07-30T08:49:05.416Z,94914.75
2022-07-30T08:52:04.096Z,94912.91
2022-07-30T08:54:50.831Z,94902.44
2022-07-30T08:57:23.908Z,94909.31
2022-07-30T09:00:12.798Z,94912.66
2022-07-30T09:02:52.762Z,94908.97
2022-07-30T09:05:39.747Z,94911.28
2022-07-30T09:08:13.838Z,94913.47
2022-07-30T09:11:05.759Z,94906.22
2022-07-30T09:13:45.085Z,94902.31
2022-07-30T09:16:33.771Z,94901.84
2022-07-30T09:19:25.758Z,94905.13
2022-07-30T09:22:13.767Z,94902.44
2022-07-30T09:24:56.770Z,94902.31
2022-07-30T09:27:55.780Z,94896.38
2022-07-30T09:30:35.757Z,94892.94
2022-07-30T09:33:38.783Z,94893.22
2022-07-30T09:36:23.780Z,94896.84
2022-07-30T09:39:17.767Z,94906.41
2022-07-30T09:42:04.989Z,94891.94
2022-07-30T09:44:45.782Z,94888.59
2022-07-30T09:47:40.794Z,94892.19
2022-07-30T09:50:30.216Z,94897.31
2022-07-30T09:53:24.809Z,94886.06
2022-07-30T09:56:31.769Z,94889.53
2022-07-30T09:59:18.628Z,94886.06
2022-07-30T10:02:13.794Z,94890.50
2022-07-30T10:05:00.764Z,94888.84
2022-07-30T10:07:42.669Z,94881.06
2022-07-30T10:10:36.777Z,94866.41
2022-07-30T10:13:21.147Z,94872.50
2022-07-30T10:16:07.802Z,94872.59
2022-07-30T10:18:41.870Z,94866.41
2022-07-30T10:21:28.810Z,94865.47
2022-07-30T10:24:12.805Z,94866.22
2022-07-30T10:27:08.227Z,94864.38
2022-07-30T10:29:54.802Z,94870.38
2022-07-30T10:32:30.959Z,94878.84
2022-07-30T10:35:34.916Z,94878.84
2022-07-30T10:38:16.923Z,94887.41
2022-07-30T10:41:47.554Z,94893.41
2022-07-30T10:44:28.108Z,94894.16
2022-07-30T10:47:18.818Z,94908.00
2022-07-30T10:50:29.151Z,94915.88
2022-07-30T10:53:15.805Z,94919.41
2022-07-30T10:55:55.819Z,94917.84
2022-07-30T10:59:16.826Z,94919.09
2022-07-30T11:02:07.230Z,94914.38
2022-07-30T11:04:47.812Z,94910.38
2022-07-30T11:07:42.828Z,94901.34
2022-07-30T11:10:45.813Z,94890.56
2022-07-30T11:13:18.904Z,94881.38
2022-07-30T11:16:11.862Z,94880.84
2022-07-30T11:19:55.836Z,94874.34
2022-07-30T11:22:37.817Z,94867.16
2022-07-30T11:25:50.387Z,94865.00
2022-07-30T11:28:50.844Z,94866.13
2022-07-30T11:31:57.915Z,94856.75
2022-07-30T11:34:39.850Z,94854.22
2022-07-30T11:37:32.405Z,94850.88
2022-07-30T11:40:05.911Z,94846.50
2022-07-30T11:42:52.846Z,94850.06
2022-07-30T11:45:29.461Z,94850.88
2022-07-30T11:48:22.849Z,94839.66
2022-07-30T11:51:04.107Z,94838.72
2022-07-30T11:53:57.863Z,94833.53
2022-07-30T11:57:02.164Z,94835.31
2022-07-30T11:59:43.850Z,94835.22
2022-07-30T12:02:43.900Z,94832.53
2022-07-30T12:05:40.853Z,94832.44
2022-07-30T12:08:36.479Z,94821.97
2022-07-30T12:11:22.883Z,94820.03
2022-07-30T12:14:13.849Z,94824.22
2022-07-30T12:17:15.237Z,94825.78
2022-07-30T12:20:09.965Z,94811.91
2022-07-30T12:22:56.844Z,94797.81
2022-07-30T12:25:29.947Z,94793.25
2022-07-30T12:28:17.870Z,94786.88
2022-07-30T12:30:50.959Z,94780.47
2022-07-30T12:33:42.120Z,94778.63
2022-07-30T12:36:22.877Z,94771.50
2022-07-30T12:39:18.868Z,94770.44
2022-07-30T12:42:05.860Z,94761.72
2022-07-30T12:44:56.890Z,94764.09
2022-07-30T12:47:50.870Z,94754.47
2022-07-30T12:50:44.885Z,94744.81
2022-07-30T12:53:35.867Z,94732.50
2022-07-30T12:56:27.907Z,94731.47
2022-07-30T12:59:34.876Z,94731.28
2022-07-30T13:02:37.880Z,94732.75
2022-07-30T13:05:12.112Z,94725.63
2022-07-30T13:08:03.893Z,94720.97
2022-07-30T13:10:36.976Z,94721.72
2022-07-30T13:13:23.885Z,94714.66
2022-07-30T13:16:09.030Z,94724.84
2022-07-30T13:18:55.894Z,94713.44
2022-07-30T13:21:29.961Z,94714.09
2022-07-30T13:24:18.400Z,94714.81
2022-07-30T13:26:58.888Z,94712.84
2022-07-30T13:29:52.920Z,94707.56
2022-07-30T13:32:39.903Z,94699.69
2022-07-30T13:35:20.943Z,94706.34
2022-07-30T13:38:08.911Z,94711.25
2022-07-30T13:40:50.905Z,94708.47
2022-07-30T13:43:37.930Z,94706.69
2022-07-30T13:46:12.108Z,94697.84
2022-07-30T13:48:59.022Z,94697.78
2022-07-30T13:51:32.020Z,94700.09
2022-07-30T13:54:18.927Z,94698.09
2022-07-30T13:56:52.007Z,94691.59
2022-07-30T13:59:38.948Z,94684.25
2022-07-30T14:02:12.531Z,94682.19
2022-07-30T14:04:58.917Z,94683.66
2022-07-30T14:07:32.024Z,94683.38
2022-07-30T14:10:18.927Z,94667.63
2022-07-30T14:12:55.046Z,94667.53
2022-07-30T14:15:41.987Z,94665.84
2022-07-30T14:18:15.077Z,94663.25
2022-07-30T14:21:01.935Z,94656.41
2022-07-30T14:23:35.007Z,94663.91
2022-07-30T14:26:21.919Z,94665.47
2022-07-30T14:29:15.940Z,94664.56
2022-07-30T14:32:09.991Z,94669.75
2022-07-30T14:35:04.002Z,94663.50
2022-07-30T14:37:57.943Z,94660.69
2022-07-30T14:40:44.951Z,94658.91
2022-07-30T14:43:19.579Z,94651.97
2022-07-30T14:46:05.941Z,94653.72
2022-07-30T14:48:45.996Z,94658.91
2022-07-30T14:51:39.947Z,94667.47
2022-07-30T14:54:35.010Z,94657.78
2022-07-30T14:57:28.960Z,94661.13
2022-07-30T15:00:24.366Z,94659.25
2022-07-30T15:03:10.947Z,94661.03
2022-07-30T15:05:52.461Z,94648.00
2022-07-30T15:08:46.000Z,94651.66
2022-07-30T15:12:07.655Z,94640.50
2022-07-30T15:14:40.270Z,94644.03
2022-07-30T15:17:20.962Z,94644.16
2022-07-30T15:19:54.078Z,94639.78
2022-07-30T15:22:40.972Z,94645.00
2022-07-30T15:25:15.032Z,94646.63
2022-07-30T15:28:08.989Z,94646.75
2022-07-30T15:31:03.020Z,94646.63
2022-07-30T15:33:51.013Z,94632.72
2022-07-30T15:36:24.107Z,94631.75
2022-07-30T15:39:11.992Z,94622.31
2022-07-30T15:41:58.722Z,94611.78
2022-07-30T15:45:15.316Z,94598.88
2022-07-30T15:48:07.006Z,94591.06
2022-07-30T15:50:53.983Z,94592.81
2022-07-30T15:53:27.058Z,94595.41
2022-07-30T15:56:13.993Z,94593.03
2022-07-30T15:58:47.131Z,94599.06
2022-07-30T16:01:34.098Z,94601.88
2022-07-30T16:04:19.654Z,94606.25
2022-07-30T16:07:08.002Z,94601.16
2022-07-30T16:09:41.057Z,94602.09
2022-07-30T16:12:28.049Z,94606.66
2022-07-30T16:15:11.010Z,94609.34
2022-07-30T16:17:58.024Z,94612.91
2022-07-30T16:20:31.353Z,94610.31
2022-07-30T16:23:21.265Z,94602.59
2022-07-30T16:26:02.016Z,94600.81
2022-07-30T16:28:56.012Z,94604.38
2022-07-30T16:31:46.034Z,94598.44
2022-07-30T16:34:26.733Z,94601.03
2022-07-30T16:37:14.012Z,94589.91
2022-07-30T16:39:47.145Z,94596.06
2022-07-30T16:42:34.016Z,94596.97
2022-07-30T16:45:07.145Z,94588.34
2022-07-30T16:47:55.026Z,94588.34
2022-07-30T16:50:28.272Z,94588.34
2022-07-30T16:53:16.054Z,94584.28
2022-07-30T16:55:50.137Z,94591.34
2022-07-30T16:58:37.034Z,94596.75
2022-07-30T17:01:10.258Z,94596.97
2022-07-30T17:03:57.043Z,94600.56
2022-07-30T17:06:30.176Z,94596.28
2022-07-30T17:09:17.032Z,94601.69
2022-07-30T17:11:54.206Z,94602.63
2022-07-30T17:14:49.044Z,94605.44
2022-07-30T17:17:29.059Z,94609.81
2022-07-30T17:20:17.049Z,94608.25
2022-07-30T17:23:02.032Z,94609.16
2022-07-30T17:25:56.049Z,94606.78
2022-07-30T17:28:44.029Z,94611.22
2022-07-30T17:31:24.055Z,94614.66
2022-07-30T17:34:18.048Z,94611.44
2022-07-30T17:37:05.051Z,94598.63
2022-07-30T17:40:26.446Z,94595.28
2022-07-30T17:42:46.062Z,94599.88
2022-07-30T17:45:26.037Z,94600.78
2022-07-30T17:48:20.051Z,94599.22
2022-07-30T17:51:07.055Z,94603.69
2022-07-30T17:53:40.121Z,94609.00
2022-07-30T17:56:27.498Z,94607.41
2022-07-30T17:59:13.503Z,94605.75
2022-07-30T18:02:08.068Z,94610.28
2022-07-30T18:04:56.575Z,94605.22
2022-07-30T18:07:30.180Z,94598.47
2022-07-30T18:10:18.083Z,94604.47
2022-07-30T18:12:54.156Z,94602.81
2022-07-30T18:15:41.091Z,94600.31
2022-07-30T18:18:14.142Z,94601.22
2022-07-30T18:21:01.062Z,94602.25
2022-07-30T18:23:41.077Z,94593.00
2022-07-30T18:26:29.067Z,94602.75
2022-07-30T18:29:02.176Z,94598.69
2022-07-30T18:31:49.096Z,94609.38
2022-07-30T18:34:22.250Z,94606.97
2022-07-30T18:37:09.083Z,94609.75
2022-07-30T18:39:49.070Z,94609.00
2022-07-30T18:42:36.085Z,94610.97
2022-07-30T18:45:09.237Z,94606.91
2022-07-30T18:47:56.097Z,94607.97
2022-07-30T18:50:30.192Z,94614.19
2022-07-30T18:53:17.117Z,94616.13
2022-07-30T18:55:58.103Z,94618.13
2022-07-30T18:58:45.092Z,94616.63
2022-07-30T19:01:18.444Z,94614.97
2022-07-30T19:04:05.118Z,94612.66
2022-07-30T19:06:45.088Z,94617.19
2022-07-30T19:09:39.115Z,94618.22
2022-07-30T19:12:26.099Z,94609.03
2022-07-30T19:15:10.076Z,94608.41
2022-07-30T19:18:06.098Z,94605.22
2022-07-30T19:20:53.130Z,94608.97
2022-07-30T19:23:26.277Z,94615.16
2022-07-30T19:26:13.103Z,94612.75
2022-07-30T19:28:46.185Z,94615.34
2022-07-30T19:31:34.128Z,94612.94
2022-07-30T19:34:11.191Z,94619.16
2022-07-30T19:36:58.118Z,94615.88
2022-07-30T19:39:31.251Z,94619.41
2022-07-30T19:42:22.114Z,94619.50
2022-07-30T19:44:55.198Z,94631.66
2022-07-30T19:47:43.121Z,94629.13
2022-07-30T19:50:17.206Z,94627.47
2022-07-30T19:53:05.133Z,94627.47
2022-07-30T19:55:45.151Z,94621.44
2022-07-30T19:58:40.122Z,94624.97
2022-07-30T20:01:40.374Z,94625.03
2022-07-30T20:04:35.149Z,94625.91
2022-07-30T20:07:22.180Z,94619.84
2022-07-30T20:10:08.146Z,94625.91
2022-07-30T20:12:55.190Z,94625.97
2022-07-30T20:15:30.357Z,94623.38
2022-07-30T20:18:17.132Z,94619.09
2022-07-30T20:21:02.236Z,94624.28
2022-07-30T20:23:49.168Z,94624.50
2022-07-30T20:26:29.071Z,94621.97
2022-07-30T20:29:19.222Z,94619.56
2022-07-30T20:32:01.472Z,94618.81
2022-07-30T20:34:55.165Z,94617.16
2022-07-30T20:37:55.485Z,94618.19
2022-07-30T20:40:38.155Z,94624.38
2022-07-30T20:43:27.453Z,94621.88
2022-07-30T20:46:02.352Z,94622.88
2022-07-30T20:48:59.581Z,94617.84
2022-07-30T20:51:40.191Z,94619.69
2022-07-30T20:54:34.173Z,94618.03
2022-07-30T20:57:56.924Z,94612.91
2022-07-30T21:00:25.192Z,94602.75
2022-07-30T21:03:13.591Z,94600.16
2022-07-30T21:05:47.270Z,94609.78
2022-07-30T21:08:34.169Z,94606.50
2022-07-30T21:11:15.189Z,94603.09
2022-07-30T21:14:02.282Z,94603.91
2022-07-30T21:16:35.357Z,94601.31
2022-07-30T21:19:25.169Z,94601.31
2022-07-30T21:22:02.464Z,94597.81
2022-07-30T21:24:49.282Z,94595.22
2022-07-30T21:27:23.070Z,94599.41
2022-07-30T21:30:16.246Z,94593.47
2022-07-30T21:32:49.275Z,94589.22
2022-07-30T21:35:36.174Z,94603.00
2022-07-30T21:38:14.271Z,94592.72
2022-07-30T21:41:02.174Z,94591.88
2022-07-30T21:43:42.212Z,94580.69
2022-07-30T21:46:30.234Z,94594.56
2022-07-30T21:49:08.327Z,94589.38
2022-07-30T21:51:55.221Z,94591.97
2022-07-30T21:54:32.256Z,94590.31
2022-07-30T21:57:23.164Z,94588.63
2022-07-30T22:00:08.193Z,94584.31
2022-07-30T22:02:56.205Z,94584.31
2022-07-30T22:05:38.817Z,94589.50
2022-07-30T22:08:26.207Z,94581.78
2022-07-30T22:11:08.883Z,94579.13
2022-07-30T22:14:03.193Z,94578.25
2022-07-30T22:16:59.227Z,94576.53
2022-07-30T22:19:39.226Z,94567.13
2022-07-30T22:22:27.427Z,94574.91
2022-07-30T22:25:03.680Z,94575.78
2022-07-30T22:28:04.198Z,94566.44
2022-07-30T22:30:58.239Z,94568.16
2022-07-30T22:33:45.215Z,94559.75
2022-07-30T22:36:25.390Z,94568.34
2022-07-30T22:39:19.217Z,94570.28
2022-07-30T22:42:06.692Z,94560.84
2022-07-30T22:44:47.431Z,94557.41
2022-07-30T22:47:51.520Z,94556.66
2022-07-30T22:50:34.235Z,94552.50
2022-07-30T22:54:10.595Z,94547.47
2022-07-30T22:56:41.239Z,94555.38
2022-07-30T22:59:14.332Z,94550.25
2022-07-30T23:02:04.679Z,94548.75
2022-07-30T23:04:38.319Z,94553.19
2022-07-30T23:07:34.538Z,94543.75
2022-07-30T23:10:17.936Z,94552.56
2022-07-30T23:13:21.234Z,94541.50
2022-07-30T23:16:01.247Z,94545.13
2022-07-30T23:18:55.228Z,94535.78
2022-07-30T23:21:42.231Z,94535.94
2022-07-30T23:24:22.344Z,94533.53
2022-07-30T23:27:09.236Z,94534.53
2022-07-30T23:29:42.320Z,94528.59
2022-07-30T23:32:29.230Z,94532.13
2022-07-30T23:35:02.324Z,94533.03
2022-07-30T23:37:50.251Z,94527.09
2022-07-30T23:40:24.355Z,94533.22
2022-07-30T23:43:11.268Z,94528.03
2022-07-30T23:45:44.617Z,94531.53
2022-07-30T23:48:31.278Z,94529.13
2022-07-30T23:51:14.261Z,94530.06
2022-07-30T23:54:08.265Z,94531.78
2022-07-30T23:57:00.485Z,94534.56
2022-07-30T23:59:40.488Z,94529.38
